Time;durP1;ratioP1;P1;durP2;ratioP2;P2;SDS_P1;SDS_P2;PMS_P1;PMS_P2;Temp;Humidity;BMP_temperature;BMP_pressure;BME280_temperature;BME280_humidity;BME280_pressure;Samples;Min_cycle;Max_cycle;Signal;HPM_P1;HPM_P2
2021/08/22 04:02:57;;;;;;;;;;;17.10;99.90;;;;;;5;36019853;41313300;-83
2021/08/22 04:06:17;;;;;;;;;;;17.10;99.90;;;;;;5;36016885;41267743;-82
2021/08/22 04:09:31;;;;;;;;;;;17.10;99.90;;;;;;5;36015575;41267561;-83
2021/08/22 04:12:48;;;;;;;;;;;17.10;99.90;;;;;;5;36013863;41264899;-83
2021/08/22 04:16:07;;;;;;;;;;;17.10;99.90;;;;;;5;36014377;41265265;-83
2021/08/22 04:19:27;;;;;;;;;;;17.20;99.90;;;;;;5;36013712;41264627;-83
2021/08/22 04:22:41;;;;;;;;;;;17.10;99.90;;;;;;5;36014189;41265781;-83
2021/08/22 04:26:00;;;;;;;;;;;17.20;99.90;;;;;;5;36013470;42015514;-83
2021/08/22 04:29:20;;;;;;;;;;;17.30;99.90;;;;;;5;36012159;41266783;-82
2021/08/22 04:32:39;;;;;;;;;;;17.40;99.90;;;;;;5;36013643;41265185;-82
2021/08/22 04:35:54;;;;;;;;;;;17.40;99.90;;;;;;5;36013554;41267487;-82
2021/08/22 04:39:11;;;;;;;;;;;17.40;99.90;;;;;;5;36014741;41265558;-83
2021/08/22 04:42:30;;;;;;;;;;;17.40;99.90;;;;;;5;36013779;41266027;-84
2021/08/22 04:45:49;;;;;;;;;;;17.40;99.90;;;;;;5;36013161;41265350;-84
2021/08/22 04:49:04;;;;;;;;;;;17.40;99.90;;;;;;5;36013927;41265071;-82
2021/08/22 04:52:21;;;;;;;;;;;17.40;99.90;;;;;;5;36013812;41265315;-84
2021/08/22 04:55:40;;;;;;;;;;;17.40;99.90;;;;;;5;36014235;41266180;-83
2021/08/22 04:59:01;;;;;;;;;;;17.40;99.90;;;;;;5;36013383;42016866;-84
2021/08/22 05:02:15;;;;;;;;;;;17.40;99.90;;;;;;5;36014002;41266207;-83
2021/08/22 05:05:32;;;;;;;;;;;17.40;99.90;;;;;;5;36014505;41266294;-83
2021/08/22 05:08:52;;;;;;;;;;;17.40;99.90;;;;;;5;36013647;41265480;-83
2021/08/22 05:12:11;;;;;;;;;;;17.40;99.90;;;;;;5;36013561;41266518;-82
2021/08/22 05:15:25;;;;;;;;;;;17.30;99.90;;;;;;5;36015864;41268459;-83
2021/08/22 05:18:42;;;;;;;;;;;17.30;99.90;;;;;;5;36013402;41266198;-83
2021/08/22 05:22:02;;;;;;;;;;;17.30;99.90;;;;;;5;36015172;41267039;-83
2021/08/22 05:25:21;;;;;;;;;;;17.30;99.90;;;;;;5;36014826;41266445;-82
2021/08/22 05:28:35;;;;;;;;;;;17.30;99.90;;;;;;5;36013154;41264937;-82
2021/08/22 05:31:54;;;;;;;;;;;17.40;99.90;;;;;;5;36012763;42017282;-84
2021/08/22 05:35:13;;;;;;;;;;;17.40;99.90;;;;;;5;36013343;41266677;-82
2021/08/22 05:38:33;;;;;;;;;;;17.50;99.90;;;;;;5;36016050;41265379;-82
2021/08/22 05:41:47;;;;;;;;;;;17.50;99.90;;;;;;5;36014569;41265274;-82
2021/08/22 05:45:04;;;;;;;;;;;17.40;99.90;;;;;;5;36012833;41266266;-83
2021/08/22 05:48:24;;;;;;;;;;;17.40;99.90;;;;;;5;36012760;41266198;-84
2021/08/22 05:51:45;;;;;;;;;;;17.40;99.90;;;;;;5;36013873;41265626;-83
2021/08/22 05:54:59;;;;;;;;;;;17.50;99.90;;;;;;5;36013495;41266534;-83
2021/08/22 05:58:16;;;;;;;;;;;17.60;99.90;;;;;;5;36013893;41266624;-84
2021/08/22 06:01:36;;;;;;;;;;;17.50;99.90;;;;;;5;36013995;41265636;-84
2021/08/22 06:04:56;;;;;;;;;;;17.50;99.90;;;;;;5;36012881;42020344;-84
2021/08/22 06:08:11;;;;;;;;;;;17.30;99.90;;;;;;5;36015315;41266377;-83
2021/08/22 06:11:28;;;;;;;;;;;17.30;99.90;;;;;;5;36014041;41267007;-83
2021/08/22 06:14:47;;;;;;;;;;;17.30;99.90;;;;;;5;36013294;41266228;-83
2021/08/22 06:18:08;;;;;;;;;;;17.40;99.90;;;;;;5;36013535;41266138;-83
2021/08/22 06:21:22;;;;;;;;;;;17.60;99.90;;;;;;5;36014640;41265811;-84
2021/08/22 06:24:39;;;;;;;;;;;17.70;99.90;;;;;;5;36013031;41265723;-84
2021/08/22 06:27:59;;;;;;;;;;;17.70;99.90;;;;;;5;36013291;41265937;-84
2021/08/22 06:31:18;;;;;;;;;;;17.80;99.90;;;;;;5;36012732;41266795;-83
2021/08/22 06:34:32;;;;;;;;;;;17.90;99.90;;;;;;5;36014094;41265491;-82
2021/08/22 06:37:51;;;;;;;;;;;17.90;99.90;;;;;;5;36013575;42015533;-83
2021/08/22 06:41:11;;;;;;;;;;;18.10;99.90;;;;;;5;36012719;41269121;-83
2021/08/22 06:44:30;;;;;;;;;;;18.30;99.90;;;;;;5;36013616;41265346;-83
2021/08/22 06:47:46;;;;;;;;;;;18.60;99.90;;;;;;5;36014493;41265077;-84
2021/08/22 06:51:03;;;;;;;;;;;18.70;99.90;;;;;;5;36013983;41265138;-83
2021/08/22 06:54:23;;;;;;;;;;;19.00;99.90;;;;;;5;36013323;41266683;-84
2021/08/22 06:57:42;;;;;;;;;;;19.30;99.90;;;;;;5;36014183;41266190;-82
2021/08/22 07:00:56;;;;;;;;;;;19.50;99.90;;;;;;5;36014117;41266184;-83
2021/08/22 07:04:14;;;;;;;;;;;19.60;99.90;;;;;;5;36015350;41265876;-84
2021/08/22 07:07:33;;;;;;;;;;;19.70;99.90;;;;;;5;36014293;41268980;-84
2021/08/22 07:10:54;;;;;;;;;;;19.80;99.90;;;;;;5;36013390;42016353;-84
2021/08/22 07:14:08;;;;;;;;;;;19.90;99.90;;;;;;5;36014426;41267223;-84
2021/08/22 07:17:25;;;;;;;;;;;20.00;99.90;;;;;;5;36015972;41265526;-84
2021/08/22 07:20:44;;;;;;;;;;;20.10;99.90;;;;;;5;36012970;41268048;-85
2021/08/22 07:24:04;;;;;;;;;;;20.10;99.90;;;;;;5;36014203;41266631;-85
2021/08/22 07:27:18;;;;;;;;;;;20.00;99.90;;;;;;5;36014027;41265505;-85
2021/08/22 07:30:35;;;;;;;;;;;20.00;99.90;;;;;;5;36013762;41266929;-85
2021/08/22 07:33:55;;;;;;;;;;;19.90;99.90;;;;;;5;36012939;41267475;-84
2021/08/22 07:37:14;;;;;;;;;;;20.10;99.90;;;;;;5;36014278;41265792;-86
2021/08/22 07:40:28;;;;;;;;;;;20.30;99.90;;;;;;5;36015134;41266500;-85
2021/08/22 07:43:47;;;;;;;;;;;20.60;99.90;;;;;;5;36015918;42015961;-73
2021/08/22 07:47:06;;;;;;;;;;;20.90;99.90;;;;;;5;36014549;41267613;-74
2021/08/22 07:50:26;;;;;;;;;;;21.00;98.70;;;;;;5;36013811;41267745;-73
2021/08/22 07:53:40;;;;;;;;;;;21.00;99.00;;;;;;5;36014223;41267559;-72
2021/08/22 07:56:57;;;;;;;;;;;21.00;98.40;;;;;;5;36014450;41266921;-73
2021/08/22 08:00:17;;;;;;;;;;;21.00;98.80;;;;;;5;36014868;41267892;-74
2021/08/22 08:03:36;;;;;;;;;;;21.00;97.50;;;;;;5;36014293;41266088;-71
2021/08/22 08:06:50;;;;;;;;;;;21.30;98.10;;;;;;5;36016887;41267737;-77
2021/08/22 08:10:08;;;;;;;;;;;21.60;96.20;;;;;;5;36013171;41266984;-77
2021/08/22 08:13:27;;;;;;;;;;;21.70;98.00;;;;;;5;36015731;41266974;-77
2021/08/22 08:16:48;;;;;;;;;;;21.80;96.70;;;;;;5;36015365;42017059;-77
2021/08/22 08:20:03;;;;;;;;;;;21.80;99.30;;;;;;5;36015750;41266268;-77
2021/08/22 08:23:20;;;;;;;;;;;21.90;99.90;;;;;;5;36013709;41266209;-77
2021/08/22 08:26:39;;;;;;;;;;;21.90;99.90;;;;;;5;36013538;41266261;-79
2021/08/22 08:29:59;;;;;;;;;;;22.00;99.90;;;;;;5;36014592;41266844;-77
2021/08/22 08:33:13;;;;;;;;;;;22.10;99.90;;;;;;5;36014939;41266509;-77
2021/08/22 08:36:30;;;;;;;;;;;22.10;99.90;;;;;;5;36012445;41267882;-77
2021/08/22 08:39:49;;;;;;;;;;;22.40;99.90;;;;;;5;36014042;41265149;-77
2021/08/22 08:43:12;;;;;;;;;;;23.00;99.20;;;;;;5;36014214;41267958;-77
2021/08/22 08:46:26;;;;;;;;;;;23.80;96.80;;;;;;5;36013710;41267153;-77
2021/08/22 08:50:00;;;;;;;;;;;24.00;94.90;;;;;;5;36016113;42016178;-77
2021/08/22 08:53:24;;;;;;;;;;;24.00;94.60;;;;;;5;36016225;41266784;-76
2021/08/22 08:56:47;;;;;;;;;;;24.30;94.40;;;;;;5;36015066;41266712;-78
2021/08/22 09:00:01;;;;;;;;;;;24.60;93.40;;;;;;5;36014628;41266757;-77
2021/08/22 09:03:20;;;;;;;;;;;25.00;92.60;;;;;;5;36018903;41268297;-77
2021/08/22 09:07:08;;;;;;;;;;;25.40;90.60;;;;;;5;36015289;41267492;-77
2021/08/22 09:10:46;;;;;;;;;;;25.50;89.30;;;;;;5;36016233;41266316;-77
2021/08/22 09:14:00;;;;;;;;;;;25.20;88.30;;;;;;5;36014132;41267286;-79
2021/08/22 09:17:36;;;;;;;;;;;24.90;89.00;;;;;;5;36013721;41266763;-77
2021/08/22 09:21:14;;;;;;;;;;;24.70;89.70;;;;;;5;36016034;41269208;-78
2021/08/22 09:24:55;;;;;;;;;;;24.40;90.70;;;;;;5;36015098;42016538;-76
2021/08/22 09:28:36;;;;;;;;;;;24.10;91.30;;;;;;5;36014127;41267557;-78
2021/08/22 09:32:02;;;;;;;;;;;23.90;91.00;;;;;;5;36014960;41266832;-77
2021/08/22 09:35:41;;;;;;;;;;;23.90;91.00;;;;;;5;36014464;41268050;-78
2021/08/22 09:39:19;;;;;;;;;;;23.80;91.20;;;;;;5;36014728;41266083;-78
2021/08/22 09:42:52;;;;;;;;;;;23.60;91.40;;;;;;5;36014965;41266271;-78
2021/08/22 09:46:33;;;;;;;;;;;23.40;92.20;;;;;;5;36014548;41266492;-78
2021/08/22 09:50:13;;;;;;;;;;;23.20;92.60;;;;;;5;36015339;41268096;-78
2021/08/22 09:53:41;;;;;;;;;;;23.30;92.70;;;;;;5;36015267;41266356;-78
2021/08/22 09:56:56;;;;;;;;;;;23.20;92.40;;;;;;5;36014342;41267771;-77
2021/08/22 10:00:50;;;;;;;;;;;23.10;92.70;;;;;;5;36015214;42016060;-77
2021/08/22 10:04:15;;;;;;;;;;;23.20;92.90;;;;;;5;36014874;41269726;-77
2021/08/22 10:07:38;;;;;;;;;;;23.20;93.40;;;;;;5;36016592;41266412;-84
2021/08/22 10:10:56;;;;;;;;;;;23.30;93.90;;;;;;5;36015037;41267454;-84
2021/08/22 10:14:14;;;;;;;;;;;23.30;93.70;;;;;;5;36014130;41266352;-86
2021/08/22 10:17:33;;;;;;;;;;;23.50;92.90;;;;;;5;36013948;41266679;-86
2021/08/22 10:21:09;;;;;;;;;;;24.00;92.60;;;;;;5;36013946;41267862;-88
2021/08/22 10:24:35;;;;;;;;;;;25.20;90.30;;;;;;5;36016066;41266416;-88
2021/08/22 10:27:55;;;;;;;;;;;26.20;86.30;;;;;;5;36013200;41266895;-88
2021/08/22 10:31:34;;;;;;;;;;;26.80;83.20;;;;;;5;36013522;41268153;-88
2021/08/22 10:35:11;;;;;;;;;;;27.00;81.50;;;;;;5;36013787;42016378;-89
2021/08/22 10:38:26;;;;;;;;;;;27.00;80.10;;;;;;5;36013553;41267006;-86
2021/08/22 10:41:43;;;;;;;;;;;26.90;79.80;;;;;;5;36015374;41265952;-87
2021/08/22 10:45:03;;;;;;;;;;;26.80;80.50;;;;;;5;36013654;41265995;-87
2021/08/22 10:48:22;;;;;;;;;;;27.20;77.50;;;;;;5;36013011;41267223;-88
2021/08/22 10:51:36;;;;;;;;;;;28.10;76.80;;;;;;5;36014149;41266023;-89
2021/08/22 10:55:06;;;;;;;;;;;29.90;73.40;;;;;;5;36013485;41265400;-87
2021/08/22 10:58:44;;;;;;;;;;;31.60;64.60;;;;;;5;36013053;41265891;-88
2021/08/22 11:02:10;;;;;;;;;;;32.10;60.40;;;;;;5;36014051;41266315;-89
2021/08/22 11:05:34;;;;;;;;;;;31.60;59.30;;;;;;5;36013239;41267109;-89
2021/08/22 11:08:53;;;;;;;;;;;30.90;61.50;;;;;;5;36013742;42016134;-89
2021/08/22 11:12:28;;;;;;;;;;;29.90;63.20;;;;;;5;36015163;41265667;-89
2021/08/22 11:15:48;;;;;;;;;;;29.20;64.80;;;;;;5;36014887;41267555;-86
2021/08/22 11:19:04;;;;;;;;;;;29.00;66.00;;;;;;5;36014168;41266090;-87
2021/08/22 11:22:22;;;;;;;;;;;29.20;63.40;;;;;;5;36015011;41265257;-87
2021/08/22 11:25:43;;;;;;;;;;;29.20;64.20;;;;;;5;36014152;41266128;-89
2021/08/22 11:29:03;;;;;;;;;;;29.40;63.70;;;;;;5;36013773;41266192;-89
2021/08/22 11:32:17;;;;;;;;;;;29.70;63.50;;;;;;5;36014720;41266384;-89
2021/08/22 11:35:35;;;;;;;;;;;30.30;64.00;;;;;;5;36013253;41266134;-88
2021/08/22 11:39:14;;;;;;;;;;;30.90;61.20;;;;;;5;36013188;41268035;-87
2021/08/22 11:42:35;;;;;;;;;;;30.30;62.90;;;;;;5;36014349;42016053;-88
2021/08/22 11:45:49;;;;;;;;;;;30.40;61.50;;;;;;5;36014886;41265847;-88
2021/08/22 11:49:07;;;;;;;;;;;30.60;61.40;;;;;;5;36014619;41265937;-88
2021/08/22 11:52:26;;;;;;;;;;;31.50;59.20;;;;;;5;36013316;41266418;-88
2021/08/22 11:55:46;;;;;;;;;;;32.30;56.00;;;;;;5;36014486;41265665;-88
2021/08/22 11:59:37;;;;;;;;;;;32.30;55.00;;;;;;5;36015347;41266052;-87
2021/08/22 12:02:56;;;;;;;;;;;33.80;54.90;;;;;;5;36013561;41266261;-88
2021/08/22 12:06:20;;;;;;;;;;;33.90;53.10;;;;;;5;36013308;41266865;-88
2021/08/22 12:09:50;;;;;;;;;;;33.30;54.00;;;;;;5;36013433;41266717;-89
2021/08/22 12:13:12;;;;;;;;;;;32.60;55.10;;;;;;5;36015869;41267276;-89
2021/08/22 12:16:31;;;;;;;;;;;31.20;57.00;;;;;;5;36014078;42016561;-90
2021/08/22 12:19:51;;;;;;;;;;;30.50;59.10;;;;;;5;36015107;41266929;-90
2021/08/22 12:23:11;;;;;;;;;;;29.80;60.10;;;;;;5;36013791;41265570;-90
2021/08/22 12:26:26;;;;;;;;;;;29.10;62.80;;;;;;5;36014439;41267415;-90
2021/08/22 12:29:44;;;;;;;;;;;28.70;63.20;;;;;;5;36015054;41265879;-90
2021/08/22 12:33:03;;;;;;;;;;;28.20;65.50;;;;;;5;36013446;41266584;-90
2021/08/22 12:36:33;;;;;;;;;;;27.70;67.30;;;;;;5;36013402;41267865;-91
2021/08/22 12:39:58;;;;;;;;;;;27.30;68.90;;;;;;5;36013094;41266969;-92
2021/08/22 12:43:15;;;;;;;;;;;27.00;70.70;;;;;;5;36012814;41266606;-88
2021/08/22 12:46:35;;;;;;;;;;;26.60;71.00;;;;;;5;36015224;41266978;-88
2021/08/22 12:49:56;;;;;;;;;;;26.30;72.00;;;;;;5;36013370;42018006;-90
2021/08/22 12:53:10;;;;;;;;;;;25.70;73.80;;;;;;5;36013923;41265989;-88
2021/08/22 12:56:28;;;;;;;;;;;25.10;75.00;;;;;;5;36012108;41264608;-86
2021/08/22 12:59:47;;;;;;;;;;;24.70;76.40;;;;;;5;36013941;41266685;-90
2021/08/22 13:03:06;;;;;;;;;;;24.30;80.80;;;;;;5;36013157;41265931;-89
2021/08/22 13:06:21;;;;;;;;;;;24.10;82.40;;;;;;5;36014539;41265827;-92
2021/08/22 13:09:38;;;;;;;;;;;23.90;83.30;;;;;;5;36013111;41266203;-92
2021/08/22 13:12:57;;;;;;;;;;;23.60;84.20;;;;;;5;36013721;41265510;-93
2021/08/22 13:16:17;;;;;;;;;;;23.40;87.50;;;;;;5;36013874;41266649;-93
2021/08/22 13:19:31;;;;;;;;;;;23.30;88.40;;;;;;5;36012886;41266254;-91
2021/08/22 13:22:53;;;;;;;;;;;23.20;90.60;;;;;;5;36013374;42016043;-93
2021/08/22 13:26:13;;;;;;;;;;;23.20;90.70;;;;;;5;36014127;41265485;-92
2021/08/22 13:29:32;;;;;;;;;;;23.10;91.00;;;;;;5;36014997;41265507;-93
2021/08/22 13:32:46;;;;;;;;;;;23.20;91.60;;;;;;5;36013889;41265706;-93
2021/08/22 13:36:03;;;;;;;;;;;23.20;90.70;;;;;;5;36012866;41266626;-92
2021/08/22 13:39:23;;;;;;;;;;;23.10;90.40;;;;;;5;36013364;41265857;-91
2021/08/22 13:42:42;;;;;;;;;;;23.00;90.60;;;;;;5;36012978;41265887;-92
2021/08/22 13:45:57;;;;;;;;;;;23.00;90.70;;;;;;5;36013780;41266854;-90
2021/08/22 13:49:14;;;;;;;;;;;23.00;90.90;;;;;;5;36013290;41265686;-92
2021/08/22 13:52:34;;;;;;;;;;;23.00;90.60;;;;;;5;36014241;41265491;-90
2021/08/22 13:55:55;;;;;;;;;;;23.00;90.20;;;;;;5;36014088;42017721;-89
2021/08/22 13:59:09;;;;;;;;;;;23.20;89.80;;;;;;5;36014303;41265921;-90
2021/08/22 14:02:26;;;;;;;;;;;23.30;89.00;;;;;;5;36013765;41267138;-90
2021/08/22 14:05:45;;;;;;;;;;;23.50;86.80;;;;;;5;36014583;41266073;-90
2021/08/22 14:09:05;;;;;;;;;;;23.60;84.90;;;;;;5;36013993;41266132;-89
2021/08/22 14:12:19;;;;;;;;;;;23.70;83.50;;;;;;5;36013841;41267239;-86
2021/08/22 14:15:36;;;;;;;;;;;23.70;85.80;;;;;;5;36014242;41266136;-90
2021/08/22 14:18:55;;;;;;;;;;;23.70;83.60;;;;;;5;36013381;41266098;-89
2021/08/22 14:22:15;;;;;;;;;;;23.60;84.70;;;;;;5;36016099;41265674;-92
2021/08/22 14:25:29;;;;;;;;;;;23.40;84.60;;;;;;5;36013755;41266126;-91
2021/08/22 14:28:48;;;;;;;;;;;23.10;86.50;;;;;;5;36013667;42016110;-93
2021/08/22 14:32:08;;;;;;;;;;;23.00;86.70;;;;;;5;36013428;41267226;-92
2021/08/22 14:35:27;;;;;;;;;;;22.80;87.50;;;;;;5;36014215;41266386;-93
2021/08/22 14:38:42;;;;;;;;;;;22.60;88.40;;;;;;5;36013612;41265594;-92
2021/08/22 14:42:00;;;;;;;;;;;22.50;88.90;;;;;;5;36014184;41266348;-90
2021/08/22 14:45:22;;;;;;;;;;;22.40;89.00;;;;;;5;36013348;41266083;-91
2021/08/22 14:48:42;;;;;;;;;;;22.30;89.80;;;;;;5;36013217;41265760;-86
2021/08/22 14:51:57;;;;;;;;;;;22.30;91.50;;;;;;5;36013013;41266114;-80
2021/08/22 14:55:14;;;;;;;;;;;22.10;91.80;;;;;;5;36012879;41266477;-85
2021/08/22 14:58:34;;;;;;;;;;;22.20;91.30;;;;;;5;36012084;41265379;-84
2021/08/22 15:01:57;;;;;;;;;;;21.80;92.30;;;;;;5;36014797;42018388;-85
2021/08/22 15:05:12;;;;;;;;;;;21.50;93.10;;;;;;5;36017172;41266632;-86
2021/08/22 15:08:38;;;;;;;;;;;21.20;93.60;;;;;;5;36014978;41266964;-83
2021/08/22 15:11:57;;;;;;;;;;;21.10;94.20;;;;;;5;36014832;41267509;-85
2021/08/22 15:15:17;;;;;;;;;;;21.00;93.70;;;;;;5;36013580;41265087;-86
2021/08/22 15:18:31;;;;;;;;;;;20.50;97.10;;;;;;5;36014249;41265596;-85
2021/08/22 15:21:48;;;;;;;;;;;20.20;99.50;;;;;;5;36013245;41264825;-85
2021/08/22 15:25:08;;;;;;;;;;;20.10;99.90;;;;;;5;36013637;41265286;-85
2021/08/22 15:28:27;;;;;;;;;;;20.00;99.90;;;;;;5;36012373;41265869;-85
2021/08/22 15:31:41;;;;;;;;;;;20.10;99.90;;;;;;5;36012772;41266053;-86
2021/08/22 15:35:00;;;;;;;;;;;20.50;99.90;;;;;;5;36012943;42016017;-86
2021/08/22 15:38:20;;;;;;;;;;;20.50;99.90;;;;;;5;36012151;41265176;-87
2021/08/22 15:41:39;;;;;;;;;;;20.50;99.90;;;;;;5;36012439;41266207;-87
2021/08/22 15:44:53;;;;;;;;;;;20.50;99.90;;;;;;5;36014438;41264323;-85
2021/08/22 15:48:10;;;;;;;;;;;20.50;99.90;;;;;;5;36014658;41266351;-86
2021/08/22 15:51:33;;;;;;;;;;;20.40;99.90;;;;;;5;36013403;41264785;-86
2021/08/22 15:54:53;;;;;;;;;;;20.10;99.90;;;;;;5;36013021;41265923;-87
2021/08/22 15:58:07;;;;;;;;;;;19.90;99.90;;;;;;5;36013383;41265398;-86
2021/08/22 16:01:24;;;;;;;;;;;19.90;99.90;;;;;;5;36013088;41265285;-86
2021/08/22 16:04:46;;;;;;;;;;;19.90;99.90;;;;;;5;36013528;41267289;-86
2021/08/22 16:08:07;;;;;;;;;;;19.70;99.90;;;;;;5;36013102;42015489;-87
2021/08/22 16:11:21;;;;;;;;;;;19.60;99.90;;;;;;5;36013200;41265157;-85
2021/08/22 16:14:39;;;;;;;;;;;19.70;99.90;;;;;;5;36013636;41265669;-86
2021/08/22 16:17:59;;;;;;;;;;;19.70;99.90;;;;;;5;36013042;41265944;-87
2021/08/22 16:21:18;;;;;;;;;;;19.70;99.90;;;;;;5;36013019;41266312;-85
2021/08/22 16:24:32;;;;;;;;;;;19.70;99.90;;;;;;5;36012598;41265619;-86
2021/08/22 16:27:50;;;;;;;;;;;19.70;99.90;;;;;;5;36013470;41264972;-86
2021/08/22 16:31:09;;;;;;;;;;;19.70;99.90;;;;;;5;36014401;41267636;-88
2021/08/22 16:34:28;;;;;;;;;;;19.80;99.90;;;;;;5;36012662;41264886;-89
2021/08/22 16:37:43;;;;;;;;;;;19.90;99.90;;;;;;5;36014285;41266369;-86
2021/08/22 16:41:01;;;;;;;;;;;19.90;99.90;;;;;;5;36014500;42016154;-86
2021/08/22 16:44:21;;;;;;;;;;;19.90;99.90;;;;;;5;36014723;41267205;-88
2021/08/22 16:47:40;;;;;;;;;;;19.80;99.90;;;;;;5;36013078;41266942;-87
2021/08/22 16:50:54;;;;;;;;;;;19.50;99.90;;;;;;5;36013707;41264658;-86
2021/08/22 16:54:11;;;;;;;;;;;19.40;99.90;;;;;;5;36013030;41266882;-85
2021/08/22 16:57:31;;;;;;;;;;;19.30;99.90;;;;;;5;36015147;41267168;-84
2021/08/22 17:00:51;;;;;;;;;;;19.30;99.90;;;;;;5;36013482;41272974;-84
2021/08/22 17:04:05;;;;;;;;;;;19.10;99.90;;;;;;5;36013674;41266083;-85
2021/08/22 17:07:22;;;;;;;;;;;19.00;99.90;;;;;;5;36014632;41267363;-86
2021/08/22 17:10:44;;;;;;;;;;;18.90;99.90;;;;;;5;36013197;41267423;-86
2021/08/22 17:14:05;;;;;;;;;;;18.90;99.90;;;;;;5;36014198;42016320;-87
2021/08/22 17:17:19;;;;;;;;;;;18.80;99.90;;;;;;5;36013527;41267576;-87
2021/08/22 17:20:37;;;;;;;;;;;18.70;99.90;;;;;;5;36013402;41267624;-86
2021/08/22 17:23:56;;;;;;;;;;;18.70;99.90;;;;;;5;36014736;41267508;-87
2021/08/22 17:27:16;;;;;;;;;;;18.50;99.90;;;;;;5;36013233;41265298;-77
2021/08/22 17:30:30;;;;;;;;;;;18.50;99.90;;;;;;5;36013462;41266681;-79
2021/08/22 17:33:47;;;;;;;;;;;18.50;99.90;;;;;;5;36014261;41264932;-78
2021/08/22 17:37:07;;;;;;;;;;;18.50;99.90;;;;;;5;36013608;41265825;-78
2021/08/22 17:40:26;;;;;;;;;;;18.50;99.90;;;;;;5;36014878;41268225;-78
2021/08/22 17:43:40;;;;;;;;;;;18.60;99.90;;;;;;5;36015247;41266451;-78
2021/08/22 17:46:59;;;;;;;;;;;18.80;99.90;;;;;;5;36014675;42016107;-78
2021/08/22 17:50:18;;;;;;;;;;;18.80;99.90;;;;;;5;36014116;41265001;-78
2021/08/22 17:53:38;;;;;;;;;;;18.80;99.90;;;;;;5;36014052;41266061;-77
2021/08/22 17:56:52;;;;;;;;;;;18.70;99.90;;;;;;5;36013513;41264550;-78
2021/08/22 18:00:09;;;;;;;;;;;18.70;99.90;;;;;;5;36012886;41264582;-78
2021/08/22 18:03:29;;;;;;;;;;;18.60;99.90;;;;;;5;36014017;41265422;-78
2021/08/22 18:06:49;;;;;;;;;;;18.60;99.90;;;;;;5;36012747;41267018;-77
2021/08/22 18:10:03;;;;;;;;;;;18.60;99.90;;;;;;5;36013224;41266866;-77
2021/08/22 18:13:20;;;;;;;;;;;18.60;99.90;;;;;;5;36013759;41266426;-77
2021/08/22 18:16:40;;;;;;;;;;;18.60;99.90;;;;;;5;36014144;41266157;-78
2021/08/22 18:20:02;;;;;;;;;;;18.60;99.90;;;;;;5;36014784;42018723;-77
2021/08/22 18:23:16;;;;;;;;;;;18.50;99.90;;;;;;5;36013381;41266021;-77
2021/08/22 18:26:34;;;;;;;;;;;18.40;99.90;;;;;;5;36013220;41267792;-78
2021/08/22 18:29:54;;;;;;;;;;;18.50;99.90;;;;;;5;36013806;41268428;-77
2021/08/22 18:33:14;;;;;;;;;;;18.50;99.90;;;;;;5;36014203;41267414;-78
2021/08/22 18:36:28;;;;;;;;;;;18.50;99.90;;;;;;5;36013459;41267502;-78
2021/08/22 18:39:45;;;;;;;;;;;18.30;99.90;;;;;;5;36012867;41267169;-78
2021/08/22 18:43:05;;;;;;;;;;;18.10;99.90;;;;;;5;36013040;41267914;-78
2021/08/22 18:46:25;;;;;;;;;;;18.00;99.90;;;;;;5;36012724;41266171;-80
2021/08/22 18:49:39;;;;;;;;;;;18.00;99.90;;;;;;5;36013295;41265001;-77
2021/08/22 18:52:57;;;;;;;;;;;17.90;99.90;;;;;;5;36013563;42017463;-78
2021/08/22 18:56:17;;;;;;;;;;;18.00;99.90;;;;;;5;36012759;41265919;-77
2021/08/22 18:59:36;;;;;;;;;;;17.90;99.90;;;;;;5;36014926;41267151;-78
2021/08/22 19:02:50;;;;;;;;;;;17.90;99.90;;;;;;5;36013860;41267608;-78
2021/08/22 19:06:08;;;;;;;;;;;17.90;99.90;;;;;;5;36014199;41266028;-78
2021/08/22 19:09:27;;;;;;;;;;;17.90;99.90;;;;;;5;36015495;41265667;-79
2021/08/22 19:12:46;;;;;;;;;;;17.90;99.90;;;;;;5;36013157;41266100;-90
2021/08/22 19:16:00;;;;;;;;;;;18.00;99.90;;;;;;5;36013756;41265651;-86
2021/08/22 19:19:18;;;;;;;;;;;18.00;99.90;;;;;;5;36014718;41266056;-86
2021/08/22 19:22:37;;;;;;;;;;;17.60;99.90;;;;;;5;36012979;41266321;-85
2021/08/22 19:25:58;;;;;;;;;;;17.40;99.90;;;;;;5;36013777;42017375;-86
2021/08/22 19:29:14;;;;;;;;;;;17.20;99.90;;;;;;5;36013011;41266246;-83
2021/08/22 19:32:31;;;;;;;;;;;17.30;99.90;;;;;;5;36013241;41267282;-86
2021/08/22 19:35:50;;;;;;;;;;;16.90;99.90;;;;;;5;36013705;41267778;-85
2021/08/22 19:39:10;;;;;;;;;;;16.90;99.90;;;;;;5;36014605;41268923;-85
2021/08/22 19:42:24;;;;;;;;;;;16.90;99.90;;;;;;5;36013213;41266430;-85
2021/08/22 19:45:41;;;;;;;;;;;16.90;99.90;;;;;;5;36013649;41265873;-86
2021/08/22 19:49:00;;;;;;;;;;;17.00;99.90;;;;;;5;36015961;41266745;-85
2021/08/22 19:52:20;;;;;;;;;;;16.90;99.90;;;;;;5;36015154;41265967;-86
2021/08/22 19:55:34;;;;;;;;;;;16.90;99.90;;;;;;5;36014837;41266019;-86
2021/08/22 19:58:53;;;;;;;;;;;16.80;99.90;;;;;;5;36013710;42015851;-85
2021/08/22 20:02:12;;;;;;;;;;;16.80;99.90;;;;;;5;36014084;41267126;-86
2021/08/22 20:05:32;;;;;;;;;;;16.80;99.90;;;;;;5;36013112;41266263;-84
2021/08/22 20:08:46;;;;;;;;;;;16.80;99.90;;;;;;5;36013877;41265549;-85
2021/08/22 20:12:04;;;;;;;;;;;16.80;99.90;;;;;;5;36015620;41266051;-85
2021/08/22 20:15:23;;;;;;;;;;;16.70;99.90;;;;;;5;36015562;41266447;-85
2021/08/22 20:18:43;;;;;;;;;;;16.40;99.90;;;;;;5;36014582;41265519;-85
2021/08/22 20:21:57;;;;;;;;;;;16.20;99.90;;;;;;5;36013653;41266087;-87
2021/08/22 20:25:14;;;;;;;;;;;16.10;99.90;;;;;;5;36014478;41265254;-87
2021/08/22 20:28:33;;;;;;;;;;;16.00;99.90;;;;;;5;36014214;41265518;-86
2021/08/22 20:31:54;;;;;;;;;;;16.00;99.90;;;;;;5;36015227;42018903;-85
2021/08/22 20:35:08;;;;;;;;;;;15.90;99.90;;;;;;5;36015202;41265784;-87
2021/08/22 20:38:26;;;;;;;;;;;15.90;99.90;;;;;;5;36014354;41267207;-87
2021/08/22 20:41:45;;;;;;;;;;;15.90;99.90;;;;;;5;36013875;41267441;-86
2021/08/22 20:45:05;;;;;;;;;;;15.80;99.90;;;;;;5;36014642;41266566;-87
2021/08/22 20:48:19;;;;;;;;;;;15.80;99.90;;;;;;5;36015730;41265916;-86
2021/08/22 20:51:36;;;;;;;;;;;15.80;99.90;;;;;;5;36014310;41265321;-86
2021/08/22 20:54:56;;;;;;;;;;;15.70;99.90;;;;;;5;36015220;41266441;-86
2021/08/22 20:58:15;;;;;;;;;;;15.70;99.90;;;;;;5;36013837;41266705;-86
2021/08/22 21:01:30;;;;;;;;;;;15.70;99.90;;;;;;5;36013163;41267464;-86
2021/08/22 21:04:48;;;;;;;;;;;15.80;99.90;;;;;;5;36014105;42015577;-88
2021/08/22 21:08:09;;;;;;;;;;;15.70;99.90;;;;;;5;36013671;41266770;-85
2021/08/22 21:11:29;;;;;;;;;;;15.70;99.90;;;;;;5;36014717;41265478;-85
2021/08/22 21:14:43;;;;;;;;;;;15.60;99.90;;;;;;5;36014443;41266064;-86
2021/08/22 21:18:00;;;;;;;;;;;15.60;99.90;;;;;;5;36014573;41266116;-85
2021/08/22 21:21:21;;;;;;;;;;;15.60;99.90;;;;;;5;36013007;41266988;-84
2021/08/22 21:24:40;;;;;;;;;;;15.60;99.90;;;;;;5;36013369;41267893;-86
2021/08/22 21:27:54;;;;;;;;;;;15.50;99.90;;;;;;5;36013122;41266504;-86
2021/08/22 21:31:12;;;;;;;;;;;15.40;99.90;;;;;;5;36013475;41266064;-86
2021/08/22 21:34:33;;;;;;;;;;;15.30;99.90;;;;;;5;36014019;41265967;-85
2021/08/22 21:37:55;;;;;;;;;;;15.30;99.90;;;;;;5;36013781;42015860;-85
2021/08/22 21:41:09;;;;;;;;;;;15.30;99.90;;;;;;5;36013257;41266740;-85
2021/08/22 21:44:29;;;;;;;;;;;15.30;99.90;;;;;;5;36013876;41266287;-85
2021/08/22 21:47:48;;;;;;;;;;;15.30;99.90;;;;;;5;36014346;41265964;-85
2021/08/22 21:51:08;;;;;;;;;;;15.30;99.90;;;;;;5;36013216;41266717;-85
2021/08/22 21:54:22;;;;;;;;;;;15.30;99.90;;;;;;5;36014536;41266258;-86
2021/08/22 21:57:39;;;;;;;;;;;15.30;99.90;;;;;;5;36013459;41266319;-86
